MSC Rania — 3EEB3 — position and weather

sailwx.info

Track history (hours):
 
Tides and Currents Weather Stations Pressure Air Temp Water Temp Dewpoint Dewpoint Depression Visibility Wind Speed Wind Dir Waves Ship Positions

MSC Rania

Last reported at 2014-Jul-27 03:30 UTC. Time now 2014-Jul-31 19:38 UTC.
Position N 37°12' W 130°40'.

Length 332 m; draft 13.2 m.

Type: Ship (hazmat cat A). MMSI: 371752000.

Date/timePositionNaut miles runAvg speedWind from/ knotsBaromVisibWave heightAir tempDewpointWater temp
2014-Jul-27 03:30N 37°12' W 130°40'17020.3
2014-Jul-26 19:06N 35°26' W 127°55'1119.6
2014-Jul-26 18:33N 35°20' W 127°44'2619.4
2014-Jul-26 17:14N 35°04' W 127°20'1319.7
2014-Jul-26 16:33N 34°57' W 127°06'2019.9
2014-Jul-26 15:33N 34°47' W 126°45'2020.0
2014-Jul-26 14:33N 34°36' W 126°24'2019.9
2014-Jul-26 13:32N 34°26' W 126°03'13819.0
2014-Jul-26 06:15N 33°37' W 123°27'1420.0
2014-Jul-26 05:33N 33°37' W 123°10'2019.9
2014-Jul-26 04:33N 33°36' W 122°46'2020.1
2014-Jul-26 03:33N 33°35' W 122°22'2020.1
2014-Jul-26 02:33N 33°33' W 121°58'2020.1
2014-Jul-26 01:33N 33°30' W 121°34'4019.5
2014-Jul-25 23:30N 33°29' W 120°46'1717.9
2014-Jul-25 22:33N 33°31' W 120°26'2116.8
2014-Jul-25 21:16N 33°33' W 120°00'1317.0
2014-Jul-25 20:31N 33°34' W 119°45'3416.3
2014-Jul-25 18:24N 33°37' W 119°04'3311.5
2014-Jul-25 15:30N 33°37' W 118°24'1010.5
2014-Jul-25 14:34N 33°40' W 118°12'6 5.6
2014-Jul-25 13:29N 33°46' W 118°13'0 0.1
2014-Jul-25 08:06N 33°46' W 118°14'0 0.0
2014-Jul-25 07:27N 33°46' W 118°14'0 0.0
2014-Jul-25 05:12N 33°46' W 118°14'0 0.0
2014-Jul-25 04:33N 33°46' W 118°14'0 0.0
2014-Jul-25 03:30N 33°46' W 118°14'0 0.0
2014-Jul-25 02:30N 33°46' W 118°14'0 0.0
2014-Jul-25 01:30N 33°46' W 118°14'0 0.0
2014-Jul-25 00:33N 33°46' W 118°14'0 0.0
2014-Jul-24 23:27N 33°46' W 118°14'0 0.0
2014-Jul-24 22:27N 33°46' W 118°14'0 0.0
2014-Jul-24 21:33N 33°46' W 118°14'0 0.0
2014-Jul-24 20:33N 33°46' W 118°14'0 0.0
2014-Jul-24 19:24N 33°46' W 118°14'0 0.0
2014-Jul-24 13:24N 33°46' W 118°14'0 0.0
2014-Jul-24 10:18N 33°46' W 118°14'0 0.0
2014-Jul-24 08:27N 33°46' W 118°14'0 0.0
2014-Jul-24 06:15N 33°46' W 118°14'0 0.0
2014-Jul-24 03:33N 33°46' W 118°14'0 0.0
2014-Jul-24 01:15N 33°46' W 118°14'0 0.0
2014-Jul-24 00:33N 33°46' W 118°14'0 0.0
2014-Jul-23 23:33N 33°46' W 118°14'0 0.0
2014-Jul-23 22:30N 33°46' W 118°14'0 0.0
2014-Jul-23 21:26N 33°46' W 118°14'0 0.0
2014-Jul-23 20:32N 33°46' W 118°14'0 0.0
2014-Jul-23 19:32N 33°46' W 118°14'0 0.0
2014-Jul-23 18:32N 33°46' W 118°14'0 0.0
2014-Jul-23 17:29N 33°46' W 118°14'0 0.0
2014-Jul-23 16:32N 33°46' W 118°14'0 0.0
2014-Jul-23 14:29N 33°46' W 118°14'0 0.0
2014-Jul-23 13:29N 33°46' W 118°14'0 0.0
2014-Jul-23 09:05N 33°46' W 118°14'0 0.0
2014-Jul-23 06:29N 33°46' W 118°14'0 0.0
2014-Jul-23 05:05N 33°46' W 118°14'0 0.0
2014-Jul-23 04:32N 33°46' W 118°14'0 0.0
2014-Jul-23 03:20N 33°46' W 118°14'0 0.0
2014-Jul-23 02:32N 33°46' W 118°14'0 0.0
2014-Jul-23 01:32N 33°46' W 118°14'0 0.0
2014-Jul-23 00:32N 33°46' W 118°14'0 0.0
2014-Jul-22 23:26N 33°46' W 118°14'0 0.0
2014-Jul-22 22:32N 33°46' W 118°14'0 0.0
2014-Jul-22 21:32N 33°46' W 118°14'0 0.0
2014-Jul-22 20:32N 33°46' W 118°14'0 0.0
2014-Jul-22 14:26N 33°46' W 118°14'0 0.0
2014-Jul-22 13:33N 33°46' W 118°14'4 3.6
2014-Jul-22 12:32N 33°43' W 118°11'6 6.6
2014-Jul-22 11:33N 33°37' W 118°13'8 8.3
2014-Jul-22 10:33N 33°36' W 118°23'11 9.2
2014-Jul-22 09:22N 33°37' W 118°36'3 3.1
2014-Jul-22 08:33N 33°36' W 118°39'2 1.8
2014-Jul-22 07:33N 33°36' W 118°41'8 7.1
2014-Jul-22 06:25N 33°37' W 118°51'7 7.4
2014-Jul-22 05:27N 33°37' W 118°60'7 7.3
2014-Jul-22 04:26N 33°36' W 119°08'6 7.3
2014-Jul-22 03:33N 33°35' W 119°16'10 8.2
2014-Jul-22 02:20N 33°33' W 119°28'912.1
2014-Jul-22 01:33N 33°32' W 119°39'2613.0
2014-Jul-21 23:33N 33°32' W 120°10'1716.3
2014-Jul-21 22:29N 33°31' W 120°31'  
Track history (hours):
 
Tides and Currents Weather Stations Pressure Air Temp Water Temp Dewpoint Dewpoint Depression Visibility Wind Speed Wind Dir Waves Ship Positions

MSC Rania

Last reported at 2014-Jul-27 03:30 UTC. Time now 2014-Jul-31 19:38 UTC.
Position N 37°12' W 130°40'.

Length 332 m; draft 13.2 m.

Type: Ship (hazmat cat A). MMSI: 371752000.

Date/timePositionNaut miles runAvg speedWind from/ knotsBaromVisibWave heightAir tempDewpointWater temp
2014-Jul-27 03:30N 37°12' W 130°40'17020.3
2014-Jul-26 19:06N 35°26' W 127°55'1119.6
2014-Jul-26 18:33N 35°20' W 127°44'2619.4
2014-Jul-26 17:14N 35°04' W 127°20'1319.7
2014-Jul-26 16:33N 34°57' W 127°06'2019.9
2014-Jul-26 15:33N 34°47' W 126°45'2020.0
2014-Jul-26 14:33N 34°36' W 126°24'2019.9
2014-Jul-26 13:32N 34°26' W 126°03'13819.0
2014-Jul-26 06:15N 33°37' W 123°27'1420.0
2014-Jul-26 05:33N 33°37' W 123°10'2019.9
2014-Jul-26 04:33N 33°36' W 122°46'2020.1
2014-Jul-26 03:33N 33°35' W 122°22'2020.1
2014-Jul-26 02:33N 33°33' W 121°58'2020.1
2014-Jul-26 01:33N 33°30' W 121°34'4019.5
2014-Jul-25 23:30N 33°29' W 120°46'1717.9
2014-Jul-25 22:33N 33°31' W 120°26'2116.8
2014-Jul-25 21:16N 33°33' W 120°00'1317.0
2014-Jul-25 20:31N 33°34' W 119°45'3416.3
2014-Jul-25 18:24N 33°37' W 119°04'3311.5
2014-Jul-25 15:30N 33°37' W 118°24'1010.5
2014-Jul-25 14:34N 33°40' W 118°12'6 5.6
2014-Jul-25 13:29N 33°46' W 118°13'0 0.1
2014-Jul-25 08:06N 33°46' W 118°14'0 0.0
2014-Jul-25 07:27N 33°46' W 118°14'0 0.0
2014-Jul-25 05:12N 33°46' W 118°14'0 0.0
2014-Jul-25 04:33N 33°46' W 118°14'0 0.0
2014-Jul-25 03:30N 33°46' W 118°14'0 0.0
2014-Jul-25 02:30N 33°46' W 118°14'0 0.0
2014-Jul-25 01:30N 33°46' W 118°14'0 0.0
2014-Jul-25 00:33N 33°46' W 118°14'0 0.0
2014-Jul-24 23:27N 33°46' W 118°14'0 0.0
2014-Jul-24 22:27N 33°46' W 118°14'0 0.0
2014-Jul-24 21:33N 33°46' W 118°14'0 0.0
2014-Jul-24 20:33N 33°46' W 118°14'0 0.0
2014-Jul-24 19:24N 33°46' W 118°14'0 0.0
2014-Jul-24 13:24N 33°46' W 118°14'0 0.0
2014-Jul-24 10:18N 33°46' W 118°14'0 0.0
2014-Jul-24 08:27N 33°46' W 118°14'0 0.0
2014-Jul-24 06:15N 33°46' W 118°14'0 0.0
2014-Jul-24 03:33N 33°46' W 118°14'0 0.0
2014-Jul-24 01:15N 33°46' W 118°14'0 0.0
2014-Jul-24 00:33N 33°46' W 118°14'0 0.0
2014-Jul-23 23:33N 33°46' W 118°14'0 0.0
2014-Jul-23 22:30N 33°46' W 118°14'0 0.0
2014-Jul-23 21:26N 33°46' W 118°14'0 0.0
2014-Jul-23 20:32N 33°46' W 118°14'0 0.0
2014-Jul-23 19:32N 33°46' W 118°14'0 0.0
2014-Jul-23 18:32N 33°46' W 118°14'0 0.0
2014-Jul-23 17:29N 33°46' W 118°14'0 0.0
2014-Jul-23 16:32N 33°46' W 118°14'0 0.0
2014-Jul-23 14:29N 33°46' W 118°14'0 0.0
2014-Jul-23 13:29N 33°46' W 118°14'0 0.0
2014-Jul-23 09:05N 33°46' W 118°14'0 0.0
2014-Jul-23 06:29N 33°46' W 118°14'0 0.0
2014-Jul-23 05:05N 33°46' W 118°14'0 0.0
2014-Jul-23 04:32N 33°46' W 118°14'0 0.0
2014-Jul-23 03:20N 33°46' W 118°14'0 0.0
2014-Jul-23 02:32N 33°46' W 118°14'0 0.0
2014-Jul-23 01:32N 33°46' W 118°14'0 0.0
2014-Jul-23 00:32N 33°46' W 118°14'0 0.0
2014-Jul-22 23:26N 33°46' W 118°14'0 0.0
2014-Jul-22 22:32N 33°46' W 118°14'0 0.0
2014-Jul-22 21:32N 33°46' W 118°14'0 0.0
2014-Jul-22 20:32N 33°46' W 118°14'0 0.0
2014-Jul-22 14:26N 33°46' W 118°14'0 0.0
2014-Jul-22 13:33N 33°46' W 118°14'4 3.6
2014-Jul-22 12:32N 33°43' W 118°11'6 6.6
2014-Jul-22 11:33N 33°37' W 118°13'8 8.3
2014-Jul-22 10:33N 33°36' W 118°23'11 9.2
2014-Jul-22 09:22N 33°37' W 118°36'3 3.1
2014-Jul-22 08:33N 33°36' W 118°39'2 1.8
2014-Jul-22 07:33N 33°36' W 118°41'8 7.1
2014-Jul-22 06:25N 33°37' W 118°51'7 7.4
2014-Jul-22 05:27N 33°37' W 118°60'7 7.3
2014-Jul-22 04:26N 33°36' W 119°08'6 7.3
2014-Jul-22 03:33N 33°35' W 119°16'10 8.2
2014-Jul-22 02:20N 33°33' W 119°28'912.1
2014-Jul-22 01:33N 33°32' W 119°39'2613.0
2014-Jul-21 23:33N 33°32' W 120°10'1716.3
2014-Jul-21 22:29N 33°31' W 120°31'  

Dump ship's entire track history